Time;durP1;ratioP1;P1;durP2;ratioP2;P2;SDS_P1;SDS_P2;PMS_P1;PMS_P2;Temp;Humidity;BMP_temperature;BMP_pressure;BME280_temperature;BME280_humidity;BME280_pressure;Samples;Min_cycle;Max_cycle;Signal;HPM_P1;HPM_P2
2024/01/22 00:02:16;;;;;;;;;;;;;;;-0.29;58.59;100943.47;4482904;32;35317;-85
2024/01/22 00:04:43;;;;;;;;;;;;;;;-0.17;58.57;100932.53;4482835;32;34003;-85
2024/01/22 00:07:11;;;;;;;;;;;;;;;-0.22;58.74;100928.72;4489681;31;33815;-83
2024/01/22 00:09:38;;;;;;;;;;;;;;;-0.07;58.25;100924.87;4495726;31;34838;-87
2024/01/22 00:12:06;;;;;;;;;;;;;;;-0.13;57.69;100921.81;4478730;31;35162;-83
2024/01/22 00:14:33;;;;;;;;;;;;;;;-0.24;57.80;100920.91;4489383;31;34301;-84
2024/01/22 00:17:00;;;;;;;;;;;;;;;-0.26;58.03;100919.91;4482658;32;33610;-85
2024/01/22 00:19:28;;;;;;;;;;;;;;;-0.32;58.29;100921.94;4482312;32;34935;-84
2024/01/22 00:21:55;;;;;;;;;;;;;;;-0.28;58.33;100911.22;4485590;31;34238;-84
2024/01/22 00:24:22;;;;;;;;;;;;;;;-0.23;58.33;100916.69;4498508;31;33832;-83
2024/01/22 00:26:50;;;;;;;;;;;;;;;-0.11;57.84;100916.09;4498179;31;33392;-84
2024/01/22 00:29:17;;;;;;;;;;;;;;;-0.15;57.54;100911.50;4497480;31;33620;-83
2024/01/22 00:31:44;;;;;;;;;;;;;;;-0.02;56.97;100916.84;4498217;31;34204;-90
2024/01/22 00:34:12;;;;;;;;;;;;;;;-0.14;57.03;100913.28;4497877;31;34609;-85
2024/01/22 00:36:39;;;;;;;;;;;;;;;-0.29;57.35;100919.66;4494780;31;33657;-85
2024/01/22 00:39:07;;;;;;;;;;;;;;;-0.18;57.29;100923.97;4468027;32;32859;-86
2024/01/22 00:41:34;;;;;;;;;;;;;;;-0.24;56.86;100920.91;4482313;32;34359;-85
2024/01/22 00:44:02;;;;;;;;;;;;;;;-0.32;57.16;100909.19;4482841;32;34132;-85
2024/01/22 00:46:29;;;;;;;;;;;;;;;-0.48;57.67;100898.50;4489226;31;33480;-85
2024/01/22 00:48:58;;;;;;;;;;;;;;;-0.39;57.64;100901.78;4499975;31;35148;-85
2024/01/22 00:51:25;;;;;;;;;;;;;;;-0.31;57.05;100894.00;4500084;31;34327;-84
2024/01/22 00:53:52;;;;;;;;;;;;;;;-0.57;57.44;100886.78;4485836;31;34145;-84
2024/01/22 00:56:20;;;;;;;;;;;;;;;-0.53;57.41;100885.34;4485632;31;34665;-84
2024/01/22 00:58:48;;;;;;;;;;;;;;;-0.60;57.82;100881.41;4499942;31;33820;-84
2024/01/22 01:01:15;;;;;;;;;;;;;;;-0.56;57.93;100883.44;4498445;31;34162;-85
2024/01/22 01:03:43;;;;;;;;;;;;;;;-0.53;57.81;100890.44;4470402;32;34230;-85
2024/01/22 01:06:10;;;;;;;;;;;;;;;-0.65;57.97;100880.09;4484159;32;32467;-83
2024/01/22 01:08:38;;;;;;;;;;;;;;;-0.53;57.53;100881.16;4484119;32;35100;-83
2024/01/22 01:11:05;;;;;;;;;;;;;;;-0.56;57.26;100874.91;4483967;31;34486;-84
2024/01/22 01:13:32;;;;;;;;;;;;;;;-0.60;57.23;100880.53;4484222;32;34320;-84
2024/01/22 01:16:01;;;;;;;;;;;;;;;-0.69;57.65;100888.25;4483901;31;34067;-85
2024/01/22 01:18:28;;;;;;;;;;;;;;;-0.67;57.78;100876.56;4465866;31;33775;-86
2024/01/22 01:20:56;;;;;;;;;;;;;;;-0.62;57.62;100871.84;4497020;31;33835;-87
2024/01/22 01:23:23;;;;;;;;;;;;;;;-0.56;57.52;100875.81;4499978;31;33452;-84
2024/01/22 01:25:50;;;;;;;;;;;;;;;-0.66;57.97;100880.87;4499647;31;33741;-83
2024/01/22 01:28:17;;;;;;;;;;;;;;;-0.65;58.06;100880.09;4484038;31;34899;-88
2024/01/22 01:30:45;;;;;;;;;;;;;;;-0.50;57.54;100871.19;4486850;31;34214;-85
2024/01/22 01:33:12;;;;;;;;;;;;;;;-0.58;57.57;100862.03;4496707;31;34263;-89
2024/01/22 01:35:43;;;;;;;;;;;;;;;-0.55;57.11;100857.19;4499734;31;34266;-88
2024/01/22 01:38:10;;;;;;;;;;;;;;;-0.62;56.92;100857.44;4484614;31;33662;-87
2024/01/22 01:40:41;;;;;;;;;;;;;;;-0.59;56.78;100855.16;4483753;31;33685;-84
2024/01/22 01:43:08;;;;;;;;;;;;;;;-0.61;56.78;100859.22;4478258;31;34767;-89
2024/01/22 01:45:35;;;;;;;;;;;;;;;-0.73;57.20;100861.63;4489168;31;34010;-85
2024/01/22 01:48:03;;;;;;;;;;;;;;;-0.73;57.52;100860.75;4499625;31;34339;-83
2024/01/22 01:50:30;;;;;;;;;;;;;;;-0.64;57.46;100864.09;4499129;31;35358;-83
2024/01/22 01:52:57;;;;;;;;;;;;;;;-0.80;57.77;100859.31;4496731;31;34014;-85
2024/01/22 01:55:25;;;;;;;;;;;;;;;-0.66;57.19;100855.41;4481977;32;34167;-84
2024/01/22 01:57:52;;;;;;;;;;;;;;;-0.56;56.83;100850.34;4483911;32;35098;-83
2024/01/22 02:00:29;;;;;;;;;;;;;;;-0.89;57.00;100850.03;4482466;32;34081;-85
2024/01/22 02:02:57;;;;;;;;;;;;;;;-0.93;57.47;100848.88;4482245;31;33996;-88
2024/01/22 02:05:25;;;;;;;;;;;;;;;-0.98;57.81;100847.59;4483933;32;32489;-85
2024/01/22 02:07:52;;;;;;;;;;;;;;;-0.89;57.64;100850.91;4495526;31;33635;-86
2024/01/22 02:10:19;;;;;;;;;;;;;;;-0.79;57.34;100861.13;4499607;31;34010;-84
2024/01/22 02:12:47;;;;;;;;;;;;;;;-0.88;57.42;100851.81;4488032;31;33934;-84
2024/01/22 02:15:14;;;;;;;;;;;;;;;-0.75;57.13;100863.19;4484164;32;33249;-84
2024/01/22 02:17:41;;;;;;;;;;;;;;;-0.87;56.96;100851.03;4496348;31;34422;-88
2024/01/22 02:20:10;;;;;;;;;;;;;;;-0.82;56.43;100855.78;4499924;31;33633;-86
2024/01/22 02:22:37;;;;;;;;;;;;;;;-0.90;56.16;100855.91;4481074;31;34082;-85
2024/01/22 02:25:05;;;;;;;;;;;;;;;-1.01;56.05;100855.88;4471822;32;32185;-85
2024/01/22 02:27:32;;;;;;;;;;;;;;;-1.05;56.22;100843.63;4469390;31;33277;-88
2024/01/22 02:29:59;;;;;;;;;;;;;;;-1.02;56.43;100831.19;4483500;32;34298;-84
2024/01/22 02:32:27;;;;;;;;;;;;;;;-1.11;56.52;100825.28;4488294;31;35036;-89
2024/01/22 02:34:55;;;;;;;;;;;;;;;-1.21;56.75;100838.00;4483719;32;32567;-88
2024/01/22 02:37:22;;;;;;;;;;;;;;;-1.20;56.84;100831.25;4484231;31;35044;-85
2024/01/22 02:39:49;;;;;;;;;;;;;;;-1.38;57.48;100834.00;4499309;31;34472;-85
2024/01/22 02:42:17;;;;;;;;;;;;;;;-1.38;57.83;100823.81;4497254;31;34947;-88
2024/01/22 02:44:45;;;;;;;;;;;;;;;-1.33;57.99;100819.13;4470003;32;33444;-86
2024/01/22 02:47:13;;;;;;;;;;;;;;;-1.21;58.01;100812.56;4483517;31;34175;-86
2024/01/22 02:49:40;;;;;;;;;;;;;;;-1.11;57.90;100825.28;4483264;32;35277;-88
2024/01/22 02:52:07;;;;;;;;;;;;;;;-1.13;57.69;100820.84;4489852;31;33960;-89
2024/01/22 02:54:35;;;;;;;;;;;;;;;-1.19;58.03;100820.31;4496992;31;32429;-87
2024/01/22 02:57:02;;;;;;;;;;;;;;;-1.19;58.26;100812.69;4499269;31;34662;-85
2024/01/22 02:59:30;;;;;;;;;;;;;;;-1.06;58.10;100810.41;4484841;31;34834;-85
2024/01/22 03:01:57;;;;;;;;;;;;;;;-1.05;57.98;100813.09;4485253;31;34566;-88
2024/01/22 03:04:25;;;;;;;;;;;;;;;-1.06;57.87;100811.31;4483662;31;34416;-87
2024/01/22 03:06:52;;;;;;;;;;;;;;;-1.09;57.91;100805.06;4482983;32;33809;-86
2024/01/22 03:09:20;;;;;;;;;;;;;;;-0.98;57.75;100797.59;4468647;32;35136;-85
2024/01/22 03:11:47;;;;;;;;;;;;;;;-0.87;57.30;100800.13;4471045;32;31675;-85
2024/01/22 03:14:15;;;;;;;;;;;;;;;-1.09;57.78;100794.91;4483358;32;33011;-86
2024/01/22 03:16:42;;;;;;;;;;;;;;;-1.09;57.97;100803.41;4483248;32;34952;-88
2024/01/22 03:19:09;;;;;;;;;;;;;;;-1.04;58.24;100794.50;4492062;31;35080;-85
2024/01/22 03:21:37;;;;;;;;;;;;;;;-1.53;60.72;100792.84;4498184;31;34855;-84
2024/01/22 03:24:05;;;;;;;;;;;;;;;-1.42;61.80;100787.81;4484832;31;33391;-88
2024/01/22 03:26:33;;;;;;;;;;;;;;;-1.29;62.08;100788.09;4499218;31;33515;-85
2024/01/22 03:29:00;;;;;;;;;;;;;;;-1.48;63.39;100799.25;4498155;31;34882;-85
2024/01/22 03:31:29;;;;;;;;;;;;;;;-1.38;62.99;100793.28;4495510;31;34275;-87
2024/01/22 03:33:56;;;;;;;;;;;;;;;-1.05;61.60;100785.09;4481955;32;33299;-84
2024/01/22 03:36:24;;;;;;;;;;;;;;;-0.93;61.05;100791.97;4481752;32;33129;-85
2024/01/22 03:38:51;;;;;;;;;;;;;;;-0.82;60.57;100799.75;4481851;32;34964;-83
2024/01/22 03:41:19;;;;;;;;;;;;;;;-1.33;61.75;100801.31;4483040;31;33597;-83
2024/01/22 03:43:46;;;;;;;;;;;;;;;-1.20;61.68;100788.88;4490948;31;33891;-85
2024/01/22 03:46:15;;;;;;;;;;;;;;;-0.85;60.31;100791.84;4484543;31;35005;-84
2024/01/22 03:48:43;;;;;;;;;;;;;;;-0.66;59.27;100791.72;4484465;31;34455;-86
2024/01/22 03:51:11;;;;;;;;;;;;;;;-0.63;58.88;100789.44;4478171;31;34504;-85
2024/01/22 03:53:38;;;;;;;;;;;;;;;-0.90;60.19;100795.69;4498892;31;33587;-88
2024/01/22 03:56:06;;;;;;;;;;;;;;;-0.88;59.86;100803.44;4498404;31;34493;-84
2024/01/22 03:58:33;;;;;;;;;;;;;;;-0.99;60.20;100795.78;4483244;32;34058;-85
2024/01/22 04:01:01;;;;;;;;;;;;;;;-1.00;60.12;100788.91;4482419;31;34110;-85
2024/01/22 04:03:30;;;;;;;;;;;;;;;-0.82;59.58;100784.47;4481569;32;33530;-85
2024/01/22 04:05:58;;;;;;;;;;;;;;;-0.72;59.45;100786.13;4481837;31;34110;-88
2024/01/22 04:08:25;;;;;;;;;;;;;;;-0.68;59.17;100797.44;4497367;31;33788;-85
2024/01/22 04:10:53;;;;;;;;;;;;;;;-0.60;58.89;100794.81;4498322;31;34058;-86
2024/01/22 04:13:21;;;;;;;;;;;;;;;-0.53;58.38;100802.19;4484178;31;32102;-84
2024/01/22 04:16:01;;;;;;;;;;;;;;;-0.71;58.75;100787.94;4497195;31;34548;-86
2024/01/22 04:18:28;;;;;;;;;;;;;;;-0.65;58.78;100780.78;4481663;31;34197;-84
2024/01/22 04:20:56;;;;;;;;;;;;;;;-0.73;59.04;100775.03;4499922;31;34686;-83
2024/01/22 04:23:23;;;;;;;;;;;;;;;-0.60;58.67;100771.00;4484592;32;33507;-84
2024/01/22 04:25:50;;;;;;;;;;;;;;;-0.66;58.33;100763.72;4484418;32;33695;-85
2024/01/22 04:28:19;;;;;;;;;;;;;;;-0.56;57.82;100773.91;4483985;31;33657;-89
2024/01/22 04:30:46;;;;;;;;;;;;;;;-0.64;57.61;100766.41;4483990;31;34127;-84
2024/01/22 04:33:13;;;;;;;;;;;;;;;-0.67;57.51;100764.50;4484519;31;33288;-88
2024/01/22 04:35:41;;;;;;;;;;;;;;;-0.77;57.73;100767.91;4484644;31;33883;-85
2024/01/22 04:38:09;;;;;;;;;;;;;;;-0.74;57.19;100764.75;4500285;31;34803;-86
2024/01/22 04:40:36;;;;;;;;;;;;;;;-0.76;56.94;100767.19;4485870;31;34761;-86
2024/01/22 04:43:03;;;;;;;;;;;;;;;-0.90;57.33;100759.16;4500142;31;33706;-85
2024/01/22 04:45:31;;;;;;;;;;;;;;;-0.83;56.96;100771.63;4462698;32;34001;-85
2024/01/22 04:47:59;;;;;;;;;;;;;;;-0.87;57.06;100767.03;4499180;31;33729;-85
2024/01/22 04:50:26;;;;;;;;;;;;;;;-0.83;56.89;100767.44;4472443;32;33034;-87
2024/01/22 04:52:54;;;;;;;;;;;;;;;-0.83;56.67;100774.19;4469935;32;33171;-85
2024/01/22 04:55:21;;;;;;;;;;;;;;;-0.96;56.68;100774.78;4470171;32;33472;-84
2024/01/22 04:57:50;;;;;;;;;;;;;;;-1.11;56.67;100782.03;4497894;31;35140;-85
2024/01/22 05:00:18;;;;;;;;;;;;;;;-1.17;56.96;100786.63;4497003;31;33593;-84
2024/01/22 05:02:45;;;;;;;;;;;;;;;-1.14;57.19;100786.84;4489092;31;33402;-86
2024/01/22 05:05:13;;;;;;;;;;;;;;;-1.12;57.28;100782.78;4492518;31;34024;-83
2024/01/22 05:07:41;;;;;;;;;;;;;;;-1.06;56.92;100782.41;4484101;32;34868;-83
2024/01/22 05:10:13;;;;;;;;;;;;;;;-1.14;57.34;100774.12;4483111;32;34812;-89
2024/01/22 05:12:40;;;;;;;;;;;;;;;-1.13;57.51;100773.38;4484306;31;32856;-87
2024/01/22 05:15:10;;;;;;;;;;;;;;;-1.19;57.94;100771.97;4484282;31;33933;-85
2024/01/22 05:17:37;;;;;;;;;;;;;;;-0.90;57.14;100769.34;4492487;31;33905;-87
2024/01/22 05:20:06;;;;;;;;;;;;;;;-1.12;57.15;100781.91;4492666;31;33881;-89
2024/01/22 05:22:34;;;;;;;;;;;;;;;-1.13;57.23;100765.75;4476530;31;35423;-87
2024/01/22 05:25:01;;;;;;;;;;;;;;;-1.22;57.79;100763.28;4481065;31;33601;-87
2024/01/22 05:27:29;;;;;;;;;;;;;;;-1.59;58.71;100751.66;4499739;31;33899;-83
2024/01/22 05:29:56;;;;;;;;;;;;;;;-1.33;58.09;100752.97;4495869;31;33825;-86
2024/01/22 05:32:23;;;;;;;;;;;;;;;-1.07;57.48;100750.09;4484872;31;34391;-87
2024/01/22 05:34:51;;;;;;;;;;;;;;;-1.12;57.28;100748.81;4485508;31;34291;-87
2024/01/22 05:37:18;;;;;;;;;;;;;;;-1.28;57.67;100750.06;4470363;32;34514;-86
2024/01/22 05:39:45;;;;;;;;;;;;;;;-1.53;58.75;100747.09;4469382;32;34199;-85
2024/01/22 05:42:13;;;;;;;;;;;;;;;-1.37;58.63;100735.66;4483735;31;33585;-84
2024/01/22 05:44:40;;;;;;;;;;;;;;;-1.72;60.51;100734.44;4488481;31;34110;-87
2024/01/22 05:47:08;;;;;;;;;;;;;;;-1.73;60.94;100736.84;4485479;31;34114;-88
2024/01/22 05:49:36;;;;;;;;;;;;;;;-2.10;63.22;100743.81;4470359;32;34906;-88
2024/01/22 05:52:03;;;;;;;;;;;;;;;-1.90;62.92;100747.19;4485677;31;33365;-86
2024/01/22 05:54:30;;;;;;;;;;;;;;;-1.77;62.53;100747.53;4489565;31;35009;-88
2024/01/22 05:56:58;;;;;;;;;;;;;;;-1.93;62.37;100746.94;4470638;32;34965;-84
2024/01/22 05:59:25;;;;;;;;;;;;;;;-1.67;61.81;100742.44;4487735;31;34746;-84
2024/01/22 06:01:56;;;;;;;;;;;;;;;-1.50;61.17;100736.28;4484601;31;33027;-84
2024/01/22 06:04:25;;;;;;;;;;;;;;;-1.54;60.82;100736.78;4489469;31;34181;-88
2024/01/22 06:06:52;;;;;;;;;;;;;;;-1.35;60.08;100734.16;4498409;31;34134;-83
2024/01/22 06:09:19;;;;;;;;;;;;;;;-1.47;60.01;100734.91;4499995;31;34177;-88
2024/01/22 06:11:47;;;;;;;;;;;;;;;-1.54;60.15;100740.22;4498647;31;33736;-88
2024/01/22 06:14:16;;;;;;;;;;;;;;;-1.30;59.55;100736.31;4470289;32;34071;-88
2024/01/22 06:16:46;;;;;;;;;;;;;;;-1.43;59.64;100737.72;4472642;32;33546;-87
2024/01/22 06:19:14;;;;;;;;;;;;;;;-1.41;59.52;100733.62;4469842;32;34715;-86
2024/01/22 06:21:41;;;;;;;;;;;;;;;-1.42;59.39;100727.66;4484071;32;33546;-87
2024/01/22 06:24:08;;;;;;;;;;;;;;;-1.43;58.93;100723.34;4490909;31;34595;-85
2024/01/22 06:26:36;;;;;;;;;;;;;;;-1.59;59.33;100726.22;4499556;31;34109;-85
2024/01/22 06:29:03;;;;;;;;;;;;;;;-1.65;59.65;100728.22;4499606;31;33822;-88
2024/01/22 06:31:30;;;;;;;;;;;;;;;-1.55;59.88;100730.81;4464894;32;33400;-86
2024/01/22 06:33:58;;;;;;;;;;;;;;;-1.49;60.07;100738.94;4496240;31;35024;-84
2024/01/22 06:36:28;;;;;;;;;;;;;;;-1.35;59.88;100736.69;4495154;31;34449;-90
2024/01/22 06:38:55;;;;;;;;;;;;;;;-1.59;60.80;100730.41;4498018;31;34947;-84
2024/01/22 06:41:25;;;;;;;;;;;;;;;-2.12;64.04;100740.25;4478439;31;33547;-83
2024/01/22 06:43:52;;;;;;;;;;;;;;;-2.25;65.05;100750.97;4483401;31;34671;-84
2024/01/22 06:46:20;;;;;;;;;;;;;;;-2.09;65.52;100755.75;4489316;31;35154;-85
2024/01/22 06:48:47;;;;;;;;;;;;;;;-1.86;65.08;100761.97;4486738;31;34988;-91
2024/01/22 06:51:16;;;;;;;;;;;;;;;-2.42;67.66;100771.47;4483828;31;33079;-85
2024/01/22 06:53:44;;;;;;;;;;;;;;;-2.35;68.04;100765.25;4469012;31;34382;-87
2024/01/22 06:56:12;;;;;;;;;;;;;;;-2.35;68.56;100772.87;4469429;32;34517;-85
2024/01/22 06:58:39;;;;;;;;;;;;;;;-2.62;69.71;100768.75;4471147;31;34320;-89
2024/01/22 07:01:07;;;;;;;;;;;;;;;-2.77;70.36;100765.72;4490609;31;33349;-85
2024/01/22 07:03:37;;;;;;;;;;;;;;;-2.41;69.49;100769.81;4483710;32;34631;-88
2024/01/22 07:06:05;;;;;;;;;;;;;;;-2.29;68.98;100763.28;4484264;32;33968;-89
2024/01/22 07:08:33;;;;;;;;;;;;;;;-2.39;69.59;100768.28;4477258;31;35326;-88
2024/01/22 07:11:00;;;;;;;;;;;;;;;-2.60;70.78;100774.88;4483457;32;34255;-87
2024/01/22 07:13:28;;;;;;;;;;;;;;;-2.60;70.28;100773.22;4484137;32;34309;-85
2024/01/22 07:15:55;;;;;;;;;;;;;;;-2.73;71.17;100773.78;4484035;32;35532;-87
2024/01/22 07:18:23;;;;;;;;;;;;;;;-2.66;71.18;100772.66;4483530;32;34822;-90
2024/01/22 07:20:50;;;;;;;;;;;;;;;-3.06;72.38;100779.19;4469463;32;34313;-90
2024/01/22 07:23:17;;;;;;;;;;;;;;;-3.31;73.47;100776.03;4483587;32;35042;-86
2024/01/22 07:25:45;;;;;;;;;;;;;;;-2.82;72.78;100782.19;4483840;32;34233;-87
2024/01/22 07:28:13;;;;;;;;;;;;;;;-2.46;71.95;100783.00;4483795;31;33738;-90
2024/01/22 07:30:40;;;;;;;;;;;;;;;-2.76;72.89;100780.22;4483687;32;34746;-85
2024/01/22 07:33:07;;;;;;;;;;;;;;;-2.55;72.57;100783.78;4483318;31;34860;-90
2024/01/22 07:35:35;;;;;;;;;;;;;;;-2.68;72.95;100789.41;4475341;32;33851;-86
2024/01/22 07:38:04;;;;;;;;;;;;;;;-2.74;73.67;100793.94;4497119;31;34013;-89
2024/01/22 07:40:32;;;;;;;;;;;;;;;-3.18;75.30;100783.16;4498433;31;33830;-86
2024/01/22 07:42:59;;;;;;;;;;;;;;;-3.40;76.48;100797.13;4499454;31;34165;-85
2024/01/22 07:45:26;;;;;;;;;;;;;;;-2.79;74.45;100795.16;4495108;31;34556;-86
2024/01/22 07:47:54;;;;;;;;;;;;;;;-2.50;73.35;100791.09;4499057;31;34865;-89
2024/01/22 07:50:21;;;;;;;;;;;;;;;-2.17;72.57;100802.47;4499151;31;34350;-90
2024/01/22 07:52:48;;;;;;;;;;;;;;;-2.41;73.00;100803.72;4499122;31;34226;-89
2024/01/22 07:55:17;;;;;;;;;;;;;;;-2.36;72.32;100799.03;4485595;31;34363;-90
2024/01/22 07:57:45;;;;;;;;;;;;;;;-2.45;71.94;100802.53;4481757;32;34621;-91
2024/01/22 08:00:13;;;;;;;;;;;;;;;-2.38;71.55;100790.41;4483305;32;33665;-89
2024/01/22 08:02:41;;;;;;;;;;;;;;;-2.54;72.52;100783.03;4473310;32;34104;-87
2024/01/22 08:05:13;;;;;;;;;;;;;;;-2.78;73.48;100790.22;4491597;31;34203;-87
2024/01/22 08:07:42;;;;;;;;;;;;;;;-2.56;73.09;100793.06;4471978;31;33379;-86
2024/01/22 08:10:09;;;;;;;;;;;;;;;-2.39;73.07;100791.12;4482901;31;33391;-86
2024/01/22 08:12:37;;;;;;;;;;;;;;;-2.51;73.49;100790.94;4484640;31;34281;-87
2024/01/22 08:15:05;;;;;;;;;;;;;;;-2.04;71.87;100790.09;4475971;32;35223;-86
2024/01/22 08:17:34;;;;;;;;;;;;;;;-1.91;71.53;100798.81;4495819;31;34169;-85
2024/01/22 08:20:02;;;;;;;;;;;;;;;-1.65;71.03;100791.81;4498107;31;32929;-85
2024/01/22 08:22:29;;;;;;;;;;;;;;;-1.79;70.93;100782.97;4482402;32;34309;-89
2024/01/22 08:24:56;;;;;;;;;;;;;;;-1.81;71.78;100774.31;4483036;32;34514;-86
2024/01/22 08:27:24;;;;;;;;;;;;;;;-2.08;72.48;100780.44;4482908;32;33978;-86
2024/01/22 08:29:51;;;;;;;;;;;;;;;-1.86;72.30;100769.59;4485528;31;33119;-86
2024/01/22 08:32:18;;;;;;;;;;;;;;;-1.78;71.90;100766.97;4482529;31;34054;-87
2024/01/22 08:34:46;;;;;;;;;;;;;;;-1.66;71.55;100767.16;4483350;31;33402;-88
2024/01/22 08:37:13;;;;;;;;;;;;;;;-1.62;71.71;100765.75;4498237;31;34520;-86
2024/01/22 08:39:41;;;;;;;;;;;;;;;-2.07;73.18;100776.25;4489779;31;33587;-87
2024/01/22 08:42:08;;;;;;;;;;;;;;;-1.68;72.10;100776.28;4495090;31;33720;-85
2024/01/22 08:44:35;;;;;;;;;;;;;;;-1.68;71.55;100776.28;4498290;31;34177;-89
2024/01/22 08:47:03;;;;;;;;;;;;;;;-1.61;71.49;100777.72;4483819;31;34558;-86
2024/01/22 08:49:31;;;;;;;;;;;;;;;-1.30;70.62;100779.56;4496601;31;34325;-86
2024/01/22 08:52:03;;;;;;;;;;;;;;;-1.28;70.44;100772.09;4498107;31;34230;-86
2024/01/22 08:54:30;;;;;;;;;;;;;;;-1.71;72.36;100781.97;4484041;31;34079;-86
2024/01/22 08:56:57;;;;;;;;;;;;;;;-1.27;71.11;100774.75;4498204;31;34327;-87
2024/01/22 08:59:25;;;;;;;;;;;;;;;-1.16;71.17;100769.69;4493968;31;33215;-86
2024/01/22 09:01:53;;;;;;;;;;;;;;;-1.21;71.24;100769.31;4496499;31;33720;-85
2024/01/22 09:04:21;;;;;;;;;;;;;;;-1.05;70.47;100776.56;4483662;31;35142;-85
2024/01/22 09:06:48;;;;;;;;;;;;;;;-1.32;70.97;100772.59;4500050;31;35033;-86
2024/01/22 09:09:16;;;;;;;;;;;;;;;-0.88;70.06;100758.50;4490367;31;33013;-86
2024/01/22 09:11:43;;;;;;;;;;;;;;;-0.87;69.89;100750.13;4498054;31;35189;-87
2024/01/22 09:14:12;;;;;;;;;;;;;;;-1.79;73.00;100759.19;4485908;31;34396;-86
2024/01/22 09:16:39;;;;;;;;;;;;;;;-1.82;73.10;100749.69;4499463;31;33901;-87
2024/01/22 09:19:06;;;;;;;;;;;;;;;-1.49;72.06;100749.13;4496687;31;33572;-86
2024/01/22 09:21:34;;;;;;;;;;;;;;;-1.11;71.26;100753.13;4484740;31;34175;-87
2024/01/22 09:24:02;;;;;;;;;;;;;;;-1.17;71.30;100753.53;4485651;31;35170;-86
2024/01/22 09:26:29;;;;;;;;;;;;;;;-1.40;71.34;100740.50;4500015;31;34008;-85
2024/01/22 09:28:56;;;;;;;;;;;;;;;-1.47;72.33;100736.56;4497180;31;33583;-89
2024/01/22 09:31:23;;;;;;;;;;;;;;;-1.03;71.33;100731.75;4489136;31;34284;-86
2024/01/22 09:33:53;;;;;;;;;;;;;;;-0.96;70.99;100725.53;4484208;32;34442;-91
2024/01/22 09:36:21;;;;;;;;;;;;;;;-1.29;71.96;100733.03;4484075;32;34273;-86
2024/01/22 09:38:48;;;;;;;;;;;;;;;-1.15;71.38;100712.94;4484533;31;34485;-89
2024/01/22 09:41:16;;;;;;;;;;;;;;;-0.85;70.78;100717.12;4469609;32;33323;-86
2024/01/22 09:43:43;;;;;;;;;;;;;;;-0.87;70.75;100718.66;4469700;32;34357;-85
2024/01/22 09:46:10;;;;;;;;;;;;;;;-1.51;72.11;100720.12;4484140;32;34245;-85
2024/01/22 09:48:38;;;;;;;;;;;;;;;-1.03;70.94;100711.41;4472005;32;32617;-86
2024/01/22 09:51:06;;;;;;;;;;;;;;;-0.84;70.19;100703.62;4483934;32;33956;-86
2024/01/22 09:53:36;;;;;;;;;;;;;;;-1.52;71.68;100707.28;4470049;31;35369;-85
2024/01/22 09:56:06;;;;;;;;;;;;;;;-1.61;72.07;100687.03;4476165;31;34223;-86
2024/01/22 09:58:34;;;;;;;;;;;;;;;-1.00;70.77;100673.47;4485781;31;33349;-87
2024/01/22 10:01:02;;;;;;;;;;;;;;;-1.14;70.50;100671.44;4472350;31;34291;-88
2024/01/22 10:03:32;;;;;;;;;;;;;;;-0.82;69.88;100667.34;4485469;31;35143;-86
2024/01/22 10:06:00;;;;;;;;;;;;;;;-0.82;70.17;100656.28;4484536;31;34582;-86
2024/01/22 10:08:28;;;;;;;;;;;;;;;-0.92;69.71;100649.53;4499663;31;33347;-88
2024/01/22 10:10:56;;;;;;;;;;;;;;;-0.60;68.63;100641.97;4481790;31;35041;-85
2024/01/22 10:13:23;;;;;;;;;;;;;;;-0.80;68.70;100644.56;4498956;31;34207;-86
2024/01/22 10:15:51;;;;;;;;;;;;;;;-0.69;68.24;100636.13;4485428;31;34042;-90
2024/01/22 10:18:18;;;;;;;;;;;;;;;-0.35;67.83;100636.28;4498862;31;33377;-91
2024/01/22 10:20:46;;;;;;;;;;;;;;;-0.17;66.99;100635.19;4496200;31;34937;-87
2024/01/22 10:23:16;;;;;;;;;;;;;;;-0.09;66.65;100634.13;4484044;32;34452;-86
2024/01/22 10:25:44;;;;;;;;;;;;;;;-0.76;67.23;100636.38;4483708;31;34488;-85
2024/01/22 10:28:16;;;;;;;;;;;;;;;-0.29;66.13;100634.22;4483976;32;34237;-90
2024/01/22 10:30:44;;;;;;;;;;;;;;;-0.14;65.87;100632.00;4483877;31;34250;-87
2024/01/22 10:33:13;;;;;;;;;;;;;;;-0.07;65.32;100630.03;4482395;32;33990;-85
2024/01/22 10:35:41;;;;;;;;;;;;;;;-0.74;66.46;100629.78;4483831;32;33809;-90
2024/01/22 10:38:10;;;;;;;;;;;;;;;-0.77;67.01;100635.50;4486317;31;34120;-89
2024/01/22 10:40:38;;;;;;;;;;;;;;;-0.95;67.65;100618.72;4494368;31;34725;-88
2024/01/22 10:43:18;;;;;;;;;;;;;;;-0.85;67.62;100611.09;4459926;32;34090;-86
2024/01/22 10:45:47;;;;;;;;;;;;;;;0.02;65.67;100594.16;4469204;32;34410;-85
2024/01/22 10:48:18;;;;;;;;;;;;;;;-0.17;65.79;100586.75;4489390;31;34075;-84
2024/01/22 10:51:01;;;;;;;;;;;;;;;-0.44;66.06;100582.06;4485849;31;34888;-89
2024/01/22 10:53:28;;;;;;;;;;;;;;;-0.81;67.27;100571.47;4469419;32;35368;-85
2024/01/22 10:55:58;;;;;;;;;;;;;;;-0.90;68.09;100553.81;4483661;32;33949;-89
2024/01/22 10:58:30;;;;;;;;;;;;;;;-0.93;68.84;100550.16;4483686;31;32982;-89
2024/01/22 11:00:58;;;;;;;;;;;;;;;-0.21;67.36;100543.97;4469884;32;33977;-84
2024/01/22 11:03:27;;;;;;;;;;;;;;;-0.12;66.17;100541.22;4469394;32;34859;-83
2024/01/22 11:05:56;;;;;;;;;;;;;;;0.05;65.76;100538.31;4461086;31;34634;-83
2024/01/22 11:08:25;;;;;;;;;;;;;;;0.37;65.14;100527.97;4469692;32;33539;-85
2024/01/22 11:10:52;;;;;;;;;;;;;;;-0.05;65.58;100534.16;4483514;32;33969;-85
2024/01/22 11:13:19;;;;;;;;;;;;;;;0.12;65.82;100543.13;4483593;32;33847;-89
2024/01/22 11:15:47;;;;;;;;;;;;;;;-0.12;66.75;100544.66;4483891;31;33865;-84
2024/01/22 11:18:14;;;;;;;;;;;;;;;-0.20;66.70;100539.75;4469038;32;32736;-84
2024/01/22 11:20:42;;;;;;;;;;;;;;;0.13;66.35;100538.91;4469168;32;34582;-85
2024/01/22 11:23:09;;;;;;;;;;;;;;;0.12;66.33;100527.81;4469528;32;33910;-84
2024/01/22 11:25:37;;;;;;;;;;;;;;;0.15;66.43;100524.59;4468781;32;33995;-88
2024/01/22 11:28:05;;;;;;;;;;;;;;;0.47;65.41;100504.94;4468443;32;32705;-85
2024/01/22 11:30:33;;;;;;;;;;;;;;;0.28;65.72;100496.69;4483298;31;34270;-88
2024/01/22 11:33:01;;;;;;;;;;;;;;;0.51;65.54;100500.06;4468895;32;35201;-89
2024/01/22 11:35:32;;;;;;;;;;;;;;;0.31;65.73;100480.75;4483505;32;34146;-91
2024/01/22 11:38:01;;;;;;;;;;;;;;;0.89;64.47;100485.88;4483359;32;34086;-87
2024/01/22 11:40:55;;;;;;;;;;;;;;;1.43;63.72;100479.47;4469032;32;33810;-84
2024/01/22 11:43:22;;;;;;;;;;;;;;;0.93;64.31;100479.31;4493662;31;34940;-84
2024/01/22 11:45:53;;;;;;;;;;;;;;;0.92;64.44;100467.34;4496484;31;33332;-85
2024/01/22 11:48:23;;;;;;;;;;;;;;;0.21;65.92;100468.94;4498997;31;33527;-86
2024/01/22 11:51:01;;;;;;;;;;;;;;;0.30;66.30;100461.09;4488816;31;33707;-85
2024/01/22 11:53:31;;;;;;;;;;;;;;;0.73;65.72;100453.25;4469132;32;34360;-86
2024/01/22 11:56:04;;;;;;;;;;;;;;;0.67;65.31;100449.38;4490163;31;35026;-85
2024/01/22 11:58:32;;;;;;;;;;;;;;;1.33;63.72;100442.19;4497734;31;33434;-91
2024/01/22 12:01:00;;;;;;;;;;;;;;;1.17;63.79;100440.19;4498007;31;34233;-91
2024/01/22 12:03:31;;;;;;;;;;;;;;;0.91;64.71;100423.06;4475910;32;34226;-85
2024/01/22 12:06:04;;;;;;;;;;;;;;;1.09;64.08;100428.56;4469155;32;35073;-86
2024/01/22 12:08:32;;;;;;;;;;;;;;;0.87;64.95;100423.63;4482909;32;33801;-87
2024/01/22 12:11:06;;;;;;;;;;;;;;;0.62;65.48;100425.19;4468591;32;34771;-86
2024/01/22 12:13:33;;;;;;;;;;;;;;;1.05;64.48;100425.69;4482249;31;34514;-85
2024/01/22 12:16:00;;;;;;;;;;;;;;;1.11;64.15;100424.44;4472526;31;34303;-89
2024/01/22 12:18:27;;;;;;;;;;;;;;;1.32;63.60;100409.72;4471045;31;33931;-86
2024/01/22 12:20:55;;;;;;;;;;;;;;;1.76;62.55;100409.31;4498797;31;35101;-86
2024/01/22 12:23:31;;;;;;;;;;;;;;;1.34;62.59;100408.16;4484436;31;34200;-86
2024/01/22 12:25:59;;;;;;;;;;;;;;;1.41;62.67;100405.25;4482821;31;33699;-85
2024/01/22 12:28:32;;;;;;;;;;;;;;;0.93;64.12;100403.59;4482422;32;33452;-86
2024/01/22 12:31:00;;;;;;;;;;;;;;;0.73;63.66;100403.88;4481140;32;34280;-90
2024/01/22 12:33:32;;;;;;;;;;;;;;;1.32;62.07;100409.72;4482557;31;34360;-86
2024/01/22 12:36:18;;;;;;;;;;;;;;;1.45;62.11;100404.69;4482650;32;34321;-91
2024/01/22 12:38:53;;;;;;;;;;;;;;;0.83;63.00;100408.84;4482752;32;33453;-90
2024/01/22 12:41:21;;;;;;;;;;;;;;;0.97;63.60;100409.81;4484022;32;34028;-86
2024/01/22 12:43:49;;;;;;;;;;;;;;;0.91;63.41;100405.19;4479165;31;35311;-90